Time;durP1;ratioP1;P1;durP2;ratioP2;P2;SDS_P1;SDS_P2;PMS_P1;PMS_P2;Temp;Humidity;BMP_temperature;BMP_pressure;BME280_temperature;BME280_humidity;BME280_pressure;Samples;Min_cycle;Max_cycle;Signal;HPM_P1;HPM_P2
2022/10/29 00:02:12;;;;;;;47.80;8.10;;;;;;;12.51;100.00;102065.44;5031756;28;20350;-37
2022/10/29 00:04:37;;;;;;;50.55;6.78;;;;;;;12.46;100.00;102081.28;5031914;28;20087;-37
2022/10/29 00:07:02;;;;;;;43.30;7.70;;;;;;;12.43;100.00;102075.38;5031461;28;20049;-36
2022/10/29 00:09:28;;;;;;;36.80;7.88;;;;;;;12.40;100.00;102073.84;5030714;28;20040;-37
2022/10/29 00:11:53;;;;;;;40.15;7.43;;;;;;;12.34;100.00;102074.50;5031268;28;20420;-36
2022/10/29 00:14:18;;;;;;;50.10;7.18;;;;;;;12.34;100.00;102070.94;5031849;28;20025;-37
2022/10/29 00:16:44;;;;;;;45.78;7.43;;;;;;;12.34;100.00;102069.09;5031536;28;20107;-36
2022/10/29 00:19:09;;;;;;;43.70;7.43;;;;;;;12.34;100.00;102061.00;5031386;28;20037;-37
2022/10/29 00:21:36;;;;;;;45.97;8.02;;;;;;;12.41;100.00;102067.44;5029687;28;20021;-37
2022/10/29 00:24:02;;;;;;;50.67;8.57;;;;;;;12.46;100.00;102070.50;5012147;28;20124;-36
2022/10/29 00:26:29;;;;;;;36.70;7.30;;;;;;;12.55;100.00;102075.91;5011887;28;20034;-37
2022/10/29 00:28:55;;;;;;;49.25;7.63;;;;;;;12.52;100.00;102077.06;5029827;28;20041;-38
2022/10/29 00:31:24;;;;;;;41.30;7.07;;;;;;;12.51;100.00;102070.00;5031841;28;20029;-36
2022/10/29 00:33:51;;;;;;;45.95;7.03;;;;;;;12.47;100.00;102074.03;5031641;28;20037;-36
2022/10/29 00:36:20;;;;;;;43.03;7.00;;;;;;;12.47;100.00;102084.81;5030363;28;20112;-37
2022/10/29 00:38:46;;;;;;;46.72;7.22;;;;;;;12.46;100.00;102078.59;5029747;28;20379;-37
2022/10/29 00:41:14;;;;;;;40.42;7.95;;;;;;;12.48;100.00;102065.78;5029566;28;20029;-37
2022/10/29 00:43:43;;;;;;;46.28;7.32;;;;;;;12.56;100.00;102066.78;5031226;28;20030;-36
2022/10/29 00:46:11;;;;;;;60.28;7.60;;;;;;;12.54;100.00;102058.88;5013412;28;20037;-37
2022/10/29 00:48:43;;;;;;;42.42;7.53;;;;;;;12.55;100.00;102060.53;5030918;28;20071;-37
2022/10/29 00:51:09;;;;;;;52.20;7.85;;;;;;;12.55;100.00;102065.94;5029745;28;20029;-38
2022/10/29 00:53:38;;;;;;;43.15;7.35;;;;;;;12.46;100.00;102059.69;5030673;28;20025;-36
2022/10/29 00:56:04;;;;;;;33.15;5.82;;;;;;;12.40;100.00;102057.66;5030890;28;20037;-36
2022/10/29 00:58:29;;;;;;;60.80;7.63;;;;;;;12.34;100.00;102057.44;5029703;28;20652;-37
2022/10/29 01:00:55;;;;;;;39.13;5.78;;;;;;;12.28;100.00;102054.41;5030446;28;20428;-36
2022/10/29 01:03:20;;;;;;;34.40;5.95;;;;;;;12.22;100.00;102054.22;5015075;28;20037;-37
2022/10/29 01:05:47;;;;;;;30.85;6.13;;;;;;;12.17;100.00;102034.97;5018843;28;20017;-37
2022/10/29 01:08:13;;;;;;;39.05;6.35;;;;;;;12.15;100.00;102020.78;5028905;28;20128;-37
2022/10/29 01:11:22;;;;;;;37.63;7.03;;;;;;;12.13;100.00;102017.41;5030733;28;20029;-37
2022/10/29 01:13:54;;;;;;;35.22;6.07;;;;;;;12.07;100.00;102019.75;5013091;28;20071;-37
2022/10/29 01:16:40;;;;;;;37.17;6.88;;;;;;;12.03;100.00;102010.28;5030696;28;20021;-37
2022/10/29 01:19:12;;;;;;;46.17;6.47;;;;;;;11.97;100.00;102002.84;5030466;28;20556;-37
2022/10/29 01:22:00;;;;;;;38.70;5.97;;;;;;;11.95;100.00;102012.09;5030463;28;20041;-37
2022/10/29 01:24:45;;;;;;;;;;;;;;;11.92;100.00;102032.16;5030027;28;20030;-37
2022/10/29 01:27:32;;;;;;;37.47;6.50;;;;;;;11.95;100.00;102037.22;4979545;28;19968;-37
2022/10/29 01:30:03;;;;;;;44.45;7.07;;;;;;;11.94;100.00;102029.31;5030061;28;20037;-37
2022/10/29 01:32:57;;;;;;;42.42;6.00;;;;;;;11.90;100.00;102036.88;5029134;28;20022;-37
2022/10/29 01:35:46;;;;;;;29.00;6.30;;;;;;;11.88;100.00;102025.41;4956949;28;20103;-37
2022/10/29 01:38:17;;;;;;;41.50;6.68;;;;;;;11.89;100.00;102016.28;5006946;28;20171;-37
2022/10/29 01:40:58;;;;;;;29.60;6.38;;;;;;;11.88;100.00;102008.38;5030244;28;20044;-36
2022/10/29 01:43:48;;;;;;;42.63;6.20;;;;;;;11.85;100.00;102012.22;5010608;28;20452;-36
2022/10/29 01:46:30;;;;;;;32.92;6.43;;;;;;;11.83;100.00;102003.44;5018765;28;20111;-37
2022/10/29 01:49:01;;;;;;;50.03;7.55;;;;;;;11.80;100.00;101998.38;5028711;28;20033;-37
2022/10/29 01:51:30;;;;;;;44.55;7.50;;;;;;;11.82;100.00;101999.03;5029068;28;20092;-36
2022/10/29 01:53:58;;;;;;;34.70;7.18;;;;;;;11.81;100.00;101994.66;5028204;28;20370;-36
2022/10/29 01:56:23;;;;;;;;;;;;;;;11.77;100.00;102001.34;5012648;28;20071;-36
2022/10/29 01:58:51;;;;;;;28.63;6.90;;;;;;;11.75;100.00;101996.16;5029837;28;19944;-36
2022/10/29 02:02:01;;;;;;;38.47;7.32;;;;;;;11.74;100.00;101996.28;5029605;28;20104;-36
2022/10/29 02:04:54;;;;;;;44.45;7.80;;;;;;;11.73;100.00;102000.00;4949476;29;20039;-37
2022/10/29 02:07:40;;;;;;;42.90;7.22;;;;;;;11.75;100.00;102009.63;4960418;28;20233;-36
2022/10/29 02:10:14;;;;;;;41.28;7.82;;;;;;;11.78;100.00;102000.38;5020460;28;20045;-36
2022/10/29 02:12:46;;;;;;;35.30;7.38;;;;;;;11.82;100.00;102001.72;5012786;28;20033;-36
2022/10/29 02:15:35;;;;;;;32.50;6.18;;;;;;;11.76;100.00;101999.69;5029843;28;20037;-36
2022/10/29 02:18:02;;;;;;;34.75;7.00;;;;;;;11.77;100.00;101995.97;5030896;28;20026;-36
2022/10/29 02:20:27;;;;;;;29.57;6.87;;;;;;;11.81;100.00;101970.38;5030969;28;20657;-36
2022/10/29 02:22:52;;;;;;;35.30;7.35;;;;;;;11.79;100.00;101977.78;5031190;28;20026;-37
2022/10/29 02:25:18;;;;;;;31.95;6.97;;;;;;;11.80;100.00;101974.09;5030880;28;20495;-36
2022/10/29 02:27:43;;;;;;;36.88;8.40;;;;;;;11.82;100.00;101972.91;5030812;28;20076;-37
2022/10/29 02:30:09;;;;;;;31.23;7.75;;;;;;;11.82;100.00;101975.63;5030369;28;20109;-36
2022/10/29 02:32:34;;;;;;;40.28;8.60;;;;;;;11.86;100.00;101973.47;5029767;28;20384;-37
2022/10/29 02:35:00;;;;;;;28.75;8.20;;;;;;;11.92;100.00;101970.09;5030922;28;20053;-38
2022/10/29 02:37:25;;;;;;;29.88;8.25;;;;;;;11.95;100.00;101972.47;5031049;28;20538;-37
2022/10/29 02:39:51;;;;;;;31.73;8.35;;;;;;;11.94;100.00;101976.19;5030500;28;20041;-38
2022/10/29 02:42:16;;;;;;;38.28;8.93;;;;;;;11.94;100.00;101970.78;5029463;28;20033;-36
2022/10/29 02:44:43;;;;;;;30.88;8.60;;;;;;;11.90;100.00;101964.03;5030692;28;20047;-36
2022/10/29 02:47:08;;;;;;;34.80;7.68;;;;;;;11.88;100.00;101966.06;5030501;28;20080;-37
2022/10/29 02:49:33;;;;;;;34.88;8.52;;;;;;;11.89;100.00;101962.34;5030350;28;20060;-36
2022/10/29 02:51:58;;;;;;;30.83;7.80;;;;;;;11.90;100.00;101961.34;5030361;28;20465;-38
2022/10/29 02:54:24;;;;;;;50.22;10.25;;;;;;;11.94;100.00;101965.41;5030436;28;20384;-35
2022/10/29 02:56:49;;;;;;;41.08;9.73;;;;;;;11.98;100.00;101966.78;5030648;28;20520;-35
2022/10/29 02:59:14;;;;;;;43.15;9.23;;;;;;;12.01;100.00;101966.44;5028714;28;20453;-38
2022/10/29 03:01:40;;;;;;;42.72;9.60;;;;;;;12.04;100.00;101967.97;5030760;28;20030;-36
2022/10/29 03:04:05;;;;;;;37.05;8.63;;;;;;;12.08;100.00;101967.47;5028933;28;20044;-36
2022/10/29 03:06:31;;;;;;;41.13;9.30;;;;;;;12.11;100.00;101968.13;5028007;28;20370;-36
2022/10/29 03:08:56;;;;;;;45.55;9.60;;;;;;;12.08;100.00;101972.88;5018831;28;20512;-36
2022/10/29 03:11:21;;;;;;;33.28;8.68;;;;;;;12.07;100.00;101976.56;5010066;28;20030;-37
2022/10/29 03:13:47;;;;;;;52.25;11.60;;;;;;;12.05;100.00;101973.19;5010049;28;20101;-36
2022/10/29 03:16:13;;;;;;;47.15;9.98;;;;;;;12.05;100.00;101967.78;5008051;28;20062;-37
2022/10/29 03:18:38;;;;;;;46.85;9.40;;;;;;;12.10;100.00;101969.16;5015648;28;20381;-37
2022/10/29 03:21:04;;;;;;;45.63;9.55;;;;;;;12.15;100.00;101956.00;5026407;28;20029;-37
2022/10/29 03:23:29;;;;;;;39.58;8.43;;;;;;;12.20;100.00;101951.81;5026518;28;20044;-37
2022/10/29 03:25:55;;;;;;;31.15;8.73;;;;;;;12.22;100.00;101938.16;5030089;28;20063;-37
2022/10/29 03:28:21;;;;;;;31.00;8.13;;;;;;;12.22;100.00;101940.84;5028996;28;20037;-37
2022/10/29 03:30:47;;;;;;;38.38;9.63;;;;;;;12.23;100.00;101934.44;5030494;28;20460;-38
2022/10/29 03:33:12;;;;;;;39.17;9.70;;;;;;;12.23;100.00;101934.44;5030337;28;20373;-36
2022/10/29 03:35:38;;;;;;;43.72;10.13;;;;;;;12.23;100.00;101942.53;5030104;28;20048;-37
2022/10/29 03:38:04;;;;;;;47.63;10.40;;;;;;;12.22;100.00;101946.25;5030136;28;20033;-38
2022/10/29 03:40:29;;;;;;;35.30;10.20;;;;;;;12.20;100.00;101940.16;5029887;28;20049;-36
2022/10/29 03:42:54;;;;;;;39.20;10.15;;;;;;;12.18;100.00;101934.94;5029051;28;20032;-37
2022/10/29 03:45:20;;;;;;;35.75;9.98;;;;;;;12.19;100.00;101922.28;5030019;28;20026;-36
2022/10/29 03:47:46;;;;;;;39.42;9.85;;;;;;;12.17;100.00;101927.00;5029084;28;20324;-37
2022/10/29 03:50:11;;;;;;;43.22;9.82;;;;;;;12.18;100.00;101928.69;5031006;28;20021;-36
2022/10/29 03:52:37;;;;;;;36.22;9.55;;;;;;;12.19;100.00;101930.38;5031050;28;20036;-36
2022/10/29 03:55:03;;;;;;;38.42;9.60;;;;;;;12.22;100.00;101930.06;5030351;28;20120;-37
2022/10/29 03:57:29;;;;;;;38.42;9.50;;;;;;;12.25;100.00;101933.25;5031285;28;20513;-38
2022/10/29 03:59:55;;;;;;;34.85;9.75;;;;;;;12.28;100.00;101927.53;5030452;28;20164;-38
2022/10/29 04:02:20;;;;;;;31.23;10.23;;;;;;;12.29;100.00;101931.06;5032133;28;20064;-36
2022/10/29 04:04:46;;;;;;;42.67;9.23;;;;;;;12.32;100.00;101936.13;5032396;28;20386;-36
2022/10/29 04:07:11;;;;;;;36.08;8.90;;;;;;;12.34;100.00;101933.28;5032320;28;20131;-37
2022/10/29 04:09:36;;;;;;;52.65;11.40;;;;;;;12.37;100.00;101936.47;5032072;28;20480;-37
2022/10/29 04:12:02;;;;;;;32.40;9.20;;;;;;;12.39;100.00;101941.72;5031747;28;20030;-37
2022/10/29 04:14:27;;;;;;;40.65;9.95;;;;;;;12.40;100.00;101927.19;5032289;28;20368;-37
2022/10/29 04:16:53;;;;;;;38.65;9.32;;;;;;;12.41;100.00;101934.31;5031151;28;20034;-37
2022/10/29 04:19:18;;;;;;;29.05;9.07;;;;;;;12.41;100.00;101924.34;5030852;28;20041;-37
2022/10/29 04:21:43;;;;;;;35.92;9.35;;;;;;;12.44;100.00;101918.59;5031669;28;20028;-37
2022/10/29 04:24:09;;;;;;;34.08;9.35;;;;;;;12.45;100.00;101914.91;5030497;28;20087;-37
2022/10/29 04:26:34;;;;;;;32.20;8.80;;;;;;;12.47;100.00;101915.56;5029912;28;20021;-37
2022/10/29 04:28:59;;;;;;;39.33;9.77;;;;;;;12.49;100.00;101910.84;5024310;28;20098;-37
2022/10/29 04:31:25;;;;;;;37.25;9.68;;;;;;;12.52;100.00;101915.06;5028458;28;20112;-37
2022/10/29 04:33:52;;;;;;;47.58;10.48;;;;;;;12.51;100.00;101924.19;5019266;28;20052;-37
2022/10/29 04:36:17;;;;;;;39.03;10.47;;;;;;;12.51;100.00;101914.22;5011021;28;20072;-37
2022/10/29 04:38:42;;;;;;;37.15;9.73;;;;;;;12.55;100.00;101908.47;5013829;28;20423;-37
2022/10/29 04:41:08;;;;;;;37.88;10.25;;;;;;;12.55;100.00;101903.91;5032250;28;20112;-36
2022/10/29 04:43:33;;;;;;;35.58;10.02;;;;;;;12.55;100.00;101903.06;5013987;28;20088;-37
2022/10/29 04:45:58;;;;;;;37.65;10.85;;;;;;;12.55;100.00;101906.63;5012525;28;20084;-37
2022/10/29 04:48:25;;;;;;;36.17;10.60;;;;;;;12.51;100.00;101900.72;5024613;28;20049;-37
2022/10/29 04:50:51;;;;;;;31.80;10.45;;;;;;;12.48;100.00;101901.06;5020825;28;20034;-38
2022/10/29 04:53:17;;;;;;;39.25;10.57;;;;;;;12.48;100.00;101906.47;5024464;28;20045;-37
2022/10/29 04:55:43;;;;;;;43.35;12.18;;;;;;;12.48;100.00;101905.59;5030705;28;20112;-37
2022/10/29 04:58:14;;;;;;;46.05;10.88;;;;;;;12.46;100.00;101905.78;5031405;28;20488;-37
2022/10/29 05:00:39;;;;;;;39.72;11.00;;;;;;;12.45;100.00;101904.09;5031721;28;20029;-38
2022/10/29 05:03:05;;;;;;;33.15;10.38;;;;;;;12.49;100.00;101910.00;5031480;28;20032;-36
2022/10/29 05:05:30;;;;;;;43.40;10.60;;;;;;;12.48;100.00;101901.06;5029578;28;20029;-37
2022/10/29 05:08:00;;;;;;;36.50;10.25;;;;;;;12.51;100.00;101900.72;5030799;28;20053;-38
2022/10/29 05:10:27;;;;;;;32.45;10.57;;;;;;;12.51;100.00;101892.63;5030389;28;20039;-36
2022/10/29 05:13:13;;;;;;;43.78;10.45;;;;;;;12.52;100.00;101885.34;5028773;28;20029;-38
2022/10/29 05:15:38;;;;;;;33.13;10.55;;;;;;;12.54;100.00;101886.03;5027892;28;20057;-38
2022/10/29 05:18:04;;;;;;;37.88;10.25;;;;;;;12.55;100.00;101879.63;5026775;28;20057;-36
2022/10/29 05:20:30;;;;;;;36.70;11.25;;;;;;;12.57;100.00;101874.06;5027277;28;20134;-37
2022/10/29 05:23:03;;;;;;;27.35;9.43;;;;;;;12.62;100.00;101867.13;5028570;28;20434;-37
2022/10/29 05:25:30;;;;;;;34.95;10.75;;;;;;;12.61;100.00;101861.88;5027930;28;20195;-37
2022/10/29 05:28:19;;;;;;;30.40;11.10;;;;;;;12.60;100.00;101868.31;5026745;28;20048;-37
2022/10/29 05:30:45;;;;;;;38.72;9.93;;;;;;;12.60;100.00;101860.22;5028761;28;20103;-37
2022/10/29 05:33:13;;;;;;;34.03;10.82;;;;;;;12.58;100.00;101868.47;5024895;28;20095;-36
2022/10/29 05:35:39;;;;;;;39.28;11.18;;;;;;;12.59;100.00;101866.63;5008221;28;20104;-37
2022/10/29 05:38:04;;;;;;;34.92;11.80;;;;;;;12.60;100.00;101865.59;5013313;28;20535;-36
2022/10/29 05:40:30;;;;;;;45.15;11.73;;;;;;;12.61;100.00;101872.69;5027269;28;20025;-36
2022/10/29 05:42:55;;;;;;;39.53;12.50;;;;;;;12.63;100.00;101873.38;5015665;28;20089;-37
2022/10/29 05:45:21;;;;;;;39.65;11.98;;;;;;;12.66;100.00;101873.84;5011992;28;20095;-37
2022/10/29 05:47:46;;;;;;;41.10;11.55;;;;;;;12.67;100.00;101863.91;5016554;28;20053;-36
2022/10/29 05:50:12;;;;;;;39.38;11.88;;;;;;;12.68;100.00;101871.84;5017350;28;20056;-37
2022/10/29 05:52:38;;;;;;;33.75;12.45;;;;;;;12.67;100.00;101866.63;5007895;28;20034;-37
2022/10/29 05:55:04;;;;;;;31.83;11.65;;;;;;;12.66;100.00;101867.63;5011143;28;20075;-37
2022/10/29 05:57:29;;;;;;;37.70;12.07;;;;;;;12.72;100.00;101864.25;5026797;28;20092;-36
2022/10/29 05:59:55;;;;;;;39.83;12.82;;;;;;;12.69;100.00;101859.16;5026996;28;20512;-36
2022/10/29 06:02:20;;;;;;;39.30;11.70;;;;;;;12.67;100.00;101863.91;5025977;28;20357;-36
2022/10/29 06:04:48;;;;;;;33.42;12.23;;;;;;;12.63;100.00;101860.69;5027488;28;20036;-37
2022/10/29 06:07:13;;;;;;;;;;;;;;;12.62;100.00;101850.09;5027388;28;20057;-36
2022/10/29 06:09:38;;;;;;;29.35;11.77;;;;;;;12.64;100.00;101848.06;5027549;28;20141;-36
2022/10/29 06:12:04;;;;;;;34.47;11.20;;;;;;;12.65;100.00;101849.75;5026150;28;20018;-36
2022/10/29 06:14:30;;;;;;;33.65;12.13;;;;;;;12.65;100.00;101847.88;5026193;28;20060;-38
2022/10/29 06:16:55;;;;;;;36.25;12.70;;;;;;;12.68;100.00;101862.91;5027257;28;20036;-37
2022/10/29 06:19:21;;;;;;;37.13;14.35;;;;;;;12.67;100.00;101855.81;5026050;28;20021;-36
2022/10/29 06:21:46;;;;;;;31.60;13.73;;;;;;;12.70;100.00;101855.47;5027836;28;20095;-36
2022/10/29 06:24:12;;;;;;;34.30;14.38;;;;;;;12.72;100.00;101850.75;5027406;28;20113;-36
2022/10/29 06:26:38;;;;;;;42.80;15.35;;;;;;;12.72;100.00;101850.75;5027921;28;20083;-37
2022/10/29 06:29:03;;;;;;;34.75;14.63;;;;;;;12.76;100.00;101843.97;5027717;28;20462;-37
2022/10/29 06:31:29;;;;;;;32.83;14.27;;;;;;;12.80;100.00;101836.38;5027447;28;20033;-38
2022/10/29 06:33:55;;;;;;;43.03;14.07;;;;;;;12.87;100.00;101837.38;5026049;28;20034;-38
2022/10/29 06:36:20;;;;;;;37.20;13.93;;;;;;;12.89;100.00;101840.75;5026530;28;20037;-38
2022/10/29 06:38:46;;;;;;;45.83;14.93;;;;;;;12.89;100.00;101846.97;5026125;28;20444;-38
2022/10/29 06:41:11;;;;;;;42.10;15.05;;;;;;;12.89;100.00;101851.53;5026054;28;20030;-38
2022/10/29 06:43:37;;;;;;;47.05;14.32;;;;;;;12.92;100.00;101848.50;5027393;28;20500;-40
2022/10/29 06:46:02;;;;;;;41.35;14.88;;;;;;;12.96;100.00;101853.38;5027087;28;20029;-38
2022/10/29 06:48:27;;;;;;;51.03;16.10;;;;;;;13.00;100.00;101839.53;5027516;28;20028;-38
2022/10/29 06:50:53;;;;;;;44.55;15.75;;;;;;;13.03;100.00;101845.41;5027225;28;20042;-37
2022/10/29 06:53:18;;;;;;;33.40;14.68;;;;;;;13.08;100.00;101828.69;5026120;28;20033;-37
2022/10/29 06:55:44;;;;;;;49.03;15.88;;;;;;;13.15;100.00;101832.38;5027698;28;20499;-39
2022/10/29 06:58:10;;;;;;;40.97;15.43;;;;;;;13.14;100.00;101826.16;5028101;28;20518;-37
2022/10/29 07:00:37;;;;;;;36.08;15.23;;;;;;;13.13;100.00;101821.72;5015892;28;20034;-38
2022/10/29 07:03:03;;;;;;;36.15;14.57;;;;;;;13.24;100.00;101820.50;5031041;28;20059;-38
2022/10/29 07:05:29;;;;;;;37.47;14.63;;;;;;;13.34;100.00;101814.94;5029810;28;20032;-38
2022/10/29 07:07:56;;;;;;;45.53;15.50;;;;;;;13.42;100.00;101797.81;5029832;28;20429;-37
2022/10/29 07:10:21;;;;;;;37.10;15.00;;;;;;;13.49;100.00;101804.22;5030409;28;20047;-38
2022/10/29 07:12:47;;;;;;;37.70;14.95;;;;;;;13.46;100.00;101809.97;5030819;28;20680;-38
2022/10/29 07:15:12;;;;;;;44.20;16.15;;;;;;;13.44;100.00;101810.16;5029204;28;20029;-38
2022/10/29 07:17:37;;;;;;;55.15;17.88;;;;;;;13.44;100.00;101823.66;5030074;28;20048;-36
2022/10/29 07:20:04;;;;;;;51.42;16.40;;;;;;;13.47;100.00;101822.47;5030490;28;20505;-38
2022/10/29 07:22:29;;;;;;;47.83;16.40;;;;;;;13.49;100.00;101820.44;5030495;28;20062;-36
2022/10/29 07:24:55;;;;;;;47.42;16.75;;;;;;;13.57;100.00;101818.53;5030248;28;20112;-36
2022/10/29 07:27:20;;;;;;;38.85;17.38;;;;;;;13.55;100.00;101817.84;5028552;28;20370;-37
2022/10/29 07:29:45;;;;;;;39.85;17.08;;;;;;;13.61;100.00;101822.56;5030441;28;20102;-37
2022/10/29 07:32:11;;;;;;;44.47;18.35;;;;;;;13.58;100.00;101822.06;5030637;28;20430;-37
2022/10/29 07:34:36;;;;;;;48.00;17.83;;;;;;;13.63;100.00;101802.59;5028294;28;20477;-37
2022/10/29 07:37:01;;;;;;;53.58;20.15;;;;;;;13.63;100.00;101806.16;5030239;28;20029;-37
2022/10/29 07:39:27;;;;;;;44.00;19.13;;;;;;;13.73;100.00;101804.06;5028858;28;20032;-40
2022/10/29 07:41:52;;;;;;;43.83;20.00;;;;;;;13.81;100.00;101793.19;5015832;28;20426;-38
2022/10/29 07:44:17;;;;;;;45.25;18.90;;;;;;;13.97;100.00;101791.38;5009042;28;20075;-38
2022/10/29 07:46:44;;;;;;;41.10;18.77;;;;;;;14.22;100.00;101806.41;5016720;28;20060;-37
2022/10/29 07:49:10;;;;;;;41.42;18.65;;;;;;;14.34;100.00;101812.22;5029312;28;20057;-37
2022/10/29 07:51:35;;;;;;;56.00;18.88;;;;;;;14.57;100.00;101811.38;5030686;28;20028;-37
2022/10/29 07:54:00;;;;;;;51.38;19.80;;;;;;;14.62;100.00;101807.06;5031235;28;20045;-37
2022/10/29 07:56:26;;;;;;;47.97;18.17;;;;;;;14.79;100.00;101809.59;5031663;28;20026;-37
2022/10/29 07:58:51;;;;;;;43.53;18.30;;;;;;;14.87;100.00;101807.63;5029848;28;20041;-37
2022/10/29 08:01:16;;;;;;;42.42;17.38;;;;;;;14.85;100.00;101793.44;5031930;28;20021;-37
2022/10/29 08:03:42;;;;;;;41.30;18.13;;;;;;;14.82;100.00;101792.97;5032232;28;20079;-38
2022/10/29 08:06:07;;;;;;;52.97;18.50;;;;;;;14.81;100.00;101788.59;5031643;28;20045;-37
2022/10/29 08:08:33;;;;;;;47.60;18.10;;;;;;;14.81;100.00;101778.56;5030689;28;20373;-38
2022/10/29 08:11:03;;;;;;;44.88;18.88;;;;;;;14.77;100.00;101781.84;5031480;28;20067;-38
2022/10/29 08:13:28;;;;;;;41.15;19.65;;;;;;;14.76;100.00;101791.00;5014395;28;20025;-37
2022/10/29 08:15:54;;;;;;;54.85;19.52;;;;;;;14.76;100.00;101785.59;5031351;28;20037;-37
2022/10/29 08:18:19;;;;;;;51.22;20.85;;;;;;;14.82;100.00;101795.66;5031785;28;20026;-37
2022/10/29 08:20:44;;;;;;;48.75;20.58;;;;;;;15.02;100.00;101796.78;5030096;28;20029;-37
2022/10/29 08:23:10;;;;;;;52.90;20.25;;;;;;;15.35;100.00;101804.53;5031467;28;20366;-36
2022/10/29 08:25:40;;;;;;;50.60;18.98;;;;;;;15.63;100.00;101803.78;5030362;28;20156;-35
2022/10/29 08:28:06;;;;;;;47.65;18.63;;;;;;;15.84;100.00;101792.16;5029364;28;20041;-37
2022/10/29 08:30:31;;;;;;;42.78;18.50;;;;;;;15.90;100.00;101791.38;5031081;28;20381;-37
2022/10/29 08:32:57;;;;;;;48.65;17.95;;;;;;;16.02;100.00;101790.66;5030862;28;20037;-37
2022/10/29 08:35:22;;;;;;;47.28;18.02;;;;;;;16.24;100.00;101785.19;5031884;28;20192;-37
2022/10/29 08:37:47;;;;;;;43.22;16.95;;;;;;;16.50;100.00;101781.00;5031794;28;20068;-36
2022/10/29 08:40:21;;;;;;;37.97;16.50;;;;;;;16.58;100.00;101778.97;5031644;28;20112;-37
2022/10/29 08:43:11;;;;;;;61.15;19.00;;;;;;;16.32;100.00;101760.59;5030459;28;20476;-37
2022/10/29 08:45:45;;;;;;;37.55;17.55;;;;;;;16.23;100.00;101756.38;5031575;28;20136;-37
2022/10/29 08:48:34;;;;;;;42.72;18.08;;;;;;;16.14;100.00;101757.53;5030516;28;20049;-37
2022/10/29 08:51:14;;;;;;;37.63;17.70;;;;;;;16.02;100.00;101752.63;5031727;28;20107;-37
2022/10/29 08:53:43;;;;;;;52.95;18.63;;;;;;;15.88;100.00;101758.16;5031831;28;20037;-37
2022/10/29 08:56:21;;;;;;;40.05;18.27;;;;;;;15.82;100.00;101751.63;5030281;28;20029;-37
2022/10/29 08:58:54;;;;;;;43.10;19.55;;;;;;;15.79;100.00;101746.56;5030379;28;20148;-37
2022/10/29 09:01:21;;;;;;;42.17;19.85;;;;;;;15.79;100.00;101744.69;5031746;28;20033;-36
2022/10/29 09:03:46;;;;;;;57.90;21.80;;;;;;;15.84;100.00;101748.72;5031668;28;20044;-37
2022/10/29 09:06:18;;;;;;;46.30;20.33;;;;;;;15.78;100.00;101736.78;5031619;28;20476;-37
2022/10/29 09:09:02;;;;;;;43.13;20.02;;;;;;;15.74;100.00;101740.88;5031751;28;20071;-37
2022/10/29 09:11:45;;;;;;;46.00;20.38;;;;;;;15.75;100.00;101745.31;5031445;28;20388;-37
2022/10/29 09:14:30;;;;;;;46.28;19.92;;;;;;;15.75;100.00;101745.31;5031373;28;20095;-36
2022/10/29 09:17:13;;;;;;;54.13;22.02;;;;;;;15.69;100.00;101737.91;5029810;28;20472;-37
2022/10/29 09:20:04;;;;;;;45.78;20.92;;;;;;;15.61;100.00;101730.72;5031440;28;20103;-36
2022/10/29 09:22:46;;;;;;;53.72;21.25;;;;;;;15.63;100.00;101720.50;5029592;28;20029;-37
2022/10/29 09:25:17;;;;;;;43.72;20.08;;;;;;;15.67;100.00;101720.97;5029851;28;20029;-37
2022/10/29 09:27:52;;;;;;;58.67;22.58;;;;;;;15.72;100.00;101705.00;5029819;28;20078;-37
2022/10/29 09:30:20;;;;;;;45.50;20.27;;;;;;;15.77;100.00;101697.06;5031235;28;20060;-37
2022/10/29 09:32:59;;;;;;;49.25;20.98;;;;;;;15.82;100.00;101697.31;5031036;28;20067;-37
2022/10/29 09:35:51;;;;;;;47.15;20.13;;;;;;;15.86;100.00;101706.78;5030938;28;20025;-36
2022/10/29 09:38:18;;;;;;;45.05;20.10;;;;;;;15.94;100.00;101697.66;5016616;28;20048;-37
2022/10/29 09:40:43;;;;;;;53.45;21.23;;;;;;;16.13;100.00;101701.53;5028714;28;20033;-38
2022/10/29 09:43:11;;;;;;;57.42;20.73;;;;;;;16.22;100.00;101706.63;5030343;28;20079;-36
2022/10/29 09:45:46;;;;;;;42.15;19.73;;;;;;;16.58;100.00;101704.75;5029650;28;20040;-34
2022/10/29 09:48:26;;;;;;;49.22;18.60;;;;;;;16.86;100.00;101702.84;5028896;28;20049;-37
2022/10/29 09:50:59;;;;;;;43.58;16.88;;;;;;;17.33;100.00;101697.56;5027347;28;20026;-37
2022/10/29 09:53:25;;;;;;;36.78;16.45;;;;;;;17.91;100.00;101673.34;5028571;28;20124;-37
2022/10/29 09:55:53;;;;;;;36.20;15.25;;;;;;;18.21;100.00;101667.44;5021514;28;20440;-36
2022/10/29 09:58:24;;;;;;;42.55;15.82;;;;;;;18.55;100.00;101665.47;5023428;28;20087;-36
2022/10/29 10:00:51;;;;;;;36.55;14.95;;;;;;;18.47;99.93;101669.28;5026317;28;20057;-36
2022/10/29 10:03:33;;;;;;;33.37;13.93;;;;;;;18.43;100.00;101673.47;5017553;28;20029;-36
2022/10/29 10:06:04;;;;;;;42.65;13.93;;;;;;;18.38;100.00;101678.75;5027995;28;20033;-37
2022/10/29 10:08:31;;;;;;;40.08;15.60;;;;;;;18.21;100.00;101660.09;5029465;28;20041;-36
2022/10/29 10:10:59;;;;;;;34.28;14.45;;;;;;;18.33;100.00;101654.84;5030780;28;20037;-36
2022/10/29 10:13:35;;;;;;;41.65;15.50;;;;;;;18.32;100.00;101657.78;5011494;28;20025;-36
2022/10/29 10:16:02;;;;;;;37.60;13.40;;;;;;;18.47;100.00;101652.09;5010862;28;20548;-37
2022/10/29 10:18:31;;;;;;;38.58;14.15;;;;;;;18.67;100.00;101646.53;5028674;28;20108;-36
2022/10/29 10:21:33;;;;;;;32.03;12.27;;;;;;;18.91;99.97;101647.75;5028913;28;20057;-37
2022/10/29 10:24:00;;;;;;;32.38;11.98;;;;;;;19.41;97.29;101650.59;5021144;28;20135;-37
2022/10/29 10:26:25;;;;;;;30.90;11.15;;;;;;;19.96;96.97;101656.25;5028448;28;20722;-36
2022/10/29 10:29:16;;;;;;;33.78;12.25;;;;;;;19.85;91.28;101655.09;5029650;28;20087;-37
2022/10/29 10:31:44;;;;;;;33.47;11.55;;;;;;;19.81;91.70;101655.75;5018372;28;20045;-37
2022/10/29 10:34:19;;;;;;;31.20;11.32;;;;;;;19.48;92.72;101652.22;5032588;28;20036;-37
2022/10/29 10:37:05;;;;;;;34.40;10.88;;;;;;;19.65;92.92;101651.66;5034141;28;20110;-37
2022/10/29 10:39:45;;;;;;;25.23;9.48;;;;;;;19.40;91.25;101655.19;5036025;28;20029;-37
2022/10/29 10:42:22;;;;;;;26.73;9.35;;;;;;;19.28;93.30;101673.34;5034580;28;20025;-37
2022/10/29 10:45:15;;;;;;;28.27;9.38;;;;;;;19.06;93.23;101670.97;5033870;28;20688;-37
2022/10/29 10:47:50;;;;;;;23.55;8.88;;;;;;;19.19;94.51;101663.72;5033203;28;20045;-37
2022/10/29 10:50:24;;;;;;;18.63;7.80;;;;;;;19.60;91.71;101655.06;5033312;28;20064;-37
2022/10/29 10:52:51;;;;;;;20.92;8.00;;;;;;;19.78;88.75;101662.50;5034735;28;20025;-37
2022/10/29 10:55:29;;;;;;;29.90;8.20;;;;;;;19.55;87.93;101645.88;5029992;28;20021;-37
2022/10/29 10:58:04;;;;;;;;;;;;;;;19.28;88.93;101641.44;5032403;28;20042;-36
2022/10/29 11:00:38;;;;;;;22.10;8.35;;;;;;;19.10;90.12;101644.06;5009398;28;20012;-36
2022/10/29 11:03:27;;;;;;;26.58;8.07;;;;;;;19.03;90.97;101635.91;5036396;28;20025;-37
2022/10/29 11:06:03;;;;;;;25.30;7.40;;;;;;;18.96;91.59;101629.66;5026517;28;20060;-36
2022/10/29 11:08:33;;;;;;;20.23;7.18;;;;;;;19.00;91.48;101628.16;5015359;28;20049;-36
2022/10/29 11:11:36;;;;;;;21.30;7.97;;;;;;;19.02;90.67;101642.44;5015391;28;20041;-36
2022/10/29 11:14:12;;;;;;;24.45;8.05;;;;;;;19.22;89.79;101625.09;4977991;28;20042;-36
2022/10/29 11:16:51;;;;;;;22.30;7.18;;;;;;;19.20;89.03;101622.59;5029765;28;20099;-37
2022/10/29 11:19:40;;;;;;;28.23;8.07;;;;;;;19.38;88.85;101624.56;5034872;28;20040;-35